createdAt,value
2023-04-30T00:02:14.843Z,65.75
2023-04-30T00:04:43.052Z,65.50
2023-04-30T00:07:11.059Z,65.95
2023-04-30T00:09:40.733Z,66.91
2023-04-30T00:12:08.497Z,67.16
2023-04-30T00:14:36.673Z,66.97
2023-04-30T00:17:04.751Z,67.37
2023-04-30T00:19:32.716Z,68.08
2023-04-30T00:22:01.580Z,68.46
2023-04-30T00:24:29.746Z,68.70
2023-04-30T00:26:59.102Z,68.93
2023-04-30T00:29:27.295Z,69.45
2023-04-30T00:31:55.325Z,69.82
2023-04-30T00:34:23.358Z,70.62
2023-04-30T00:36:51.346Z,70.53
2023-04-30T00:39:19.565Z,70.45
2023-04-30T00:41:47.755Z,70.30
2023-04-30T00:44:17.271Z,70.63
2023-04-30T00:46:45.176Z,70.11
2023-04-30T00:49:13.290Z,69.96
2023-04-30T00:51:42.698Z,69.28
2023-04-30T00:54:11.187Z,69.98
2023-04-30T00:56:39.340Z,69.62
2023-04-30T00:59:07.351Z,70.14
2023-04-30T01:01:36.977Z,69.97
2023-04-30T01:04:04.974Z,70.66
2023-04-30T01:06:33.778Z,71.03
2023-04-30T01:09:02.068Z,71.23
2023-04-30T01:11:47.262Z,71.01
2023-04-30T01:14:27.113Z,71.53
2023-04-30T01:17:07.096Z,71.03
2023-04-30T01:19:45.323Z,71.61
2023-04-30T01:22:32.955Z,71.62
2023-04-30T01:25:15.582Z,71.64
2023-04-30T01:28:09.614Z,72.07
2023-04-30T01:30:40.699Z,72.09
2023-04-30T01:33:08.989Z,72.24
2023-04-30T01:36:08.759Z,72.33
2023-04-30T01:38:50.585Z,72.81
2023-04-30T01:41:30.799Z,72.50
2023-04-30T01:44:19.059Z,72.99
2023-04-30T01:47:08.665Z,72.91
2023-04-30T01:49:50.255Z,73.03
2023-04-30T01:52:38.338Z,73.07
2023-04-30T01:55:15.182Z,72.70
2023-04-30T01:57:52.707Z,73.63
2023-04-30T02:00:21.988Z,73.37
2023-04-30T02:02:50.169Z,73.83
2023-04-30T02:05:18.468Z,74.58
2023-04-30T02:07:50.353Z,74.58
2023-04-30T02:10:20.266Z,74.69
2023-04-30T02:12:48.405Z,75.21
2023-04-30T02:15:16.784Z,75.81
2023-04-30T02:17:46.073Z,75.91
2023-04-30T02:20:14.056Z,76.58
2023-04-30T02:22:42.036Z,76.98
2023-04-30T02:25:12.389Z,77.44
2023-04-30T02:27:40.830Z,77.39
2023-04-30T02:30:10.138Z,77.72
2023-04-30T02:32:38.188Z,77.59
2023-04-30T02:35:08.307Z,78.01
2023-04-30T02:37:36.351Z,78.38
2023-04-30T02:40:05.136Z,77.67
2023-04-30T02:42:33.101Z,78.53
2023-04-30T02:45:01.300Z,78.26
2023-04-30T02:47:29.264Z,78.14
2023-04-30T02:49:57.480Z,78.82
2023-04-30T02:52:26.985Z,79.02
2023-04-30T02:54:54.987Z,78.90
2023-04-30T02:57:22.939Z,78.89
2023-04-30T02:59:51.101Z,79.29
2023-04-30T03:02:21.490Z,78.75
2023-04-30T03:04:49.845Z,79.29
2023-04-30T03:07:17.835Z,79.79
2023-04-30T03:09:47.699Z,79.75
2023-04-30T03:12:15.749Z,79.62
2023-04-30T03:14:43.826Z,79.98
2023-04-30T03:17:11.842Z,80.26
2023-04-30T03:19:39.816Z,80.43
2023-04-30T03:22:07.895Z,80.81
2023-04-30T03:24:35.905Z,80.91
2023-04-30T03:27:05.260Z,81.28
2023-04-30T03:29:33.386Z,81.48
2023-04-30T03:32:04.633Z,81.50
2023-04-30T03:34:32.682Z,81.73
2023-04-30T03:37:01.765Z,81.44
2023-04-30T03:39:29.931Z,81.64
2023-04-30T03:41:57.847Z,81.51
2023-04-30T03:44:27.253Z,81.64
2023-04-30T03:46:55.525Z,81.85
2023-04-30T03:49:23.552Z,81.44
2023-04-30T03:51:51.673Z,81.69
2023-04-30T03:54:19.623Z,81.21
2023-04-30T03:56:47.670Z,80.34
2023-04-30T03:59:15.819Z,80.04
2023-04-30T04:01:45.402Z,79.29
2023-04-30T04:04:13.316Z,79.02
2023-04-30T04:06:41.497Z,77.90
2023-04-30T04:09:09.526Z,76.38
2023-04-30T04:11:37.563Z,75.30
2023-04-30T04:14:05.635Z,74.68
2023-04-30T04:16:33.773Z,72.32
2023-04-30T04:19:04.512Z,71.77
2023-04-30T04:21:33.387Z,71.46
2023-04-30T04:24:05.350Z,70.30
2023-04-30T04:26:33.638Z,71.11
2023-04-30T04:29:02.046Z,70.49
2023-04-30T04:31:30.197Z,69.12
2023-04-30T04:34:00.867Z,69.25
2023-04-30T04:36:30.565Z,68.76
2023-04-30T04:39:01.862Z,69.37
2023-04-30T04:41:29.932Z,68.88
2023-04-30T04:43:58.275Z,67.28
2023-04-30T04:46:28.278Z,66.97
2023-04-30T04:48:56.366Z,66.88
2023-04-30T04:51:24.444Z,65.85
2023-04-30T04:53:54.174Z,64.97
2023-04-30T04:56:21.948Z,65.93
2023-04-30T04:58:49.943Z,67.69
2023-04-30T05:01:17.936Z,70.39
2023-04-30T05:03:46.108Z,71.31
2023-04-30T05:06:14.343Z,72.02
2023-04-30T05:08:42.313Z,73.36
2023-04-30T05:11:12.590Z,74.05
2023-04-30T05:13:42.022Z,73.96
2023-04-30T05:16:10.118Z,73.82
2023-04-30T05:18:38.138Z,74.89
2023-04-30T05:21:06.226Z,74.51
2023-04-30T05:23:34.275Z,74.31
2023-04-30T05:26:02.415Z,73.00
2023-04-30T05:28:31.674Z,73.42
2023-04-30T05:30:59.635Z,72.96
2023-04-30T05:33:27.620Z,73.16
2023-04-30T05:35:55.583Z,72.41
2023-04-30T05:38:23.855Z,72.68
2023-04-30T05:40:52.157Z,72.25
2023-04-30T05:43:20.196Z,72.22
2023-04-30T05:45:49.546Z,71.91
2023-04-30T05:48:17.645Z,71.83
2023-04-30T05:50:45.675Z,71.49
2023-04-30T05:53:15.235Z,71.09
2023-04-30T05:55:43.429Z,70.91
2023-04-30T05:58:11.449Z,70.79
2023-04-30T06:00:39.481Z,69.98
2023-04-30T06:03:09.092Z,69.78
2023-04-30T06:05:37.322Z,69.36
2023-04-30T06:08:05.712Z,69.53
2023-04-30T06:10:33.811Z,69.54
2023-04-30T06:13:02.053Z,69.15
2023-04-30T06:15:30.046Z,68.60
2023-04-30T06:17:58.193Z,68.03
2023-04-30T06:20:28.207Z,67.87
2023-04-30T06:22:56.156Z,66.60
2023-04-30T06:25:24.216Z,66.82
2023-04-30T06:27:54.024Z,66.53
2023-04-30T06:30:22.505Z,66.44
2023-04-30T06:32:50.568Z,66.80
2023-04-30T06:35:18.719Z,66.45
2023-04-30T06:37:48.248Z,66.37
2023-04-30T06:40:16.278Z,65.43
2023-04-30T06:42:46.892Z,64.73
2023-04-30T06:45:16.051Z,64.58
2023-04-30T06:47:46.167Z,63.27
2023-04-30T06:50:15.656Z,62.74
2023-04-30T06:52:44.300Z,61.93
2023-04-30T06:55:13.983Z,61.35
2023-04-30T06:57:41.734Z,61.19
2023-04-30T07:00:10.623Z,60.60
2023-04-30T07:02:38.669Z,61.48
2023-04-30T07:05:07.524Z,61.08
2023-04-30T07:07:35.608Z,61.62
2023-04-30T07:10:03.666Z,61.33
2023-04-30T07:12:33.028Z,62.29
2023-04-30T07:15:01.245Z,62.56
2023-04-30T07:17:29.392Z,62.36
2023-04-30T07:19:57.547Z,61.57
2023-04-30T07:22:25.600Z,60.75
2023-04-30T07:24:53.700Z,60.72
2023-04-30T07:27:21.652Z,60.83
2023-04-30T07:29:50.976Z,60.88
2023-04-30T07:32:18.992Z,60.25
2023-04-30T07:34:47.011Z,60.49
2023-04-30T07:37:15.463Z,59.59
2023-04-30T07:39:43.420Z,59.27
2023-04-30T07:42:11.421Z,59.34
2023-04-30T07:44:39.712Z,58.36
2023-04-30T07:47:09.974Z,58.68
2023-04-30T07:49:38.035Z,56.64
2023-04-30T07:52:08.120Z,57.51
2023-04-30T07:54:37.428Z,57.77
2023-04-30T07:57:05.472Z,58.08
2023-04-30T07:59:33.672Z,57.28
2023-04-30T08:02:02.848Z,57.13
2023-04-30T08:04:32.401Z,57.36
2023-04-30T08:07:01.786Z,57.67
2023-04-30T08:09:29.743Z,55.20
2023-04-30T08:11:57.713Z,54.05
2023-04-30T08:14:25.679Z,54.66
2023-04-30T08:16:53.762Z,54.28
2023-04-30T08:19:21.837Z,53.47
2023-04-30T08:21:51.387Z,53.42
2023-04-30T08:24:19.446Z,53.33
2023-04-30T08:26:47.487Z,52.11
2023-04-30T08:29:15.626Z,53.09
2023-04-30T08:31:43.655Z,51.26
2023-04-30T08:34:11.786Z,51.66
2023-04-30T08:36:39.695Z,51.12
2023-04-30T08:39:09.289Z,50.69
2023-04-30T08:41:40.668Z,51.77
2023-04-30T08:44:11.964Z,52.13
2023-04-30T08:46:42.131Z,51.16
2023-04-30T08:49:10.286Z,50.93
2023-04-30T08:51:38.731Z,50.70
2023-04-30T08:54:08.101Z,49.69
2023-04-30T08:56:36.070Z,49.99
2023-04-30T08:59:04.088Z,48.21
2023-04-30T09:01:32.040Z,47.06
2023-04-30T09:04:00.159Z,47.37
2023-04-30T09:06:28.270Z,46.28
2023-04-30T09:08:56.712Z,46.24
2023-04-30T09:11:30.266Z,43.51
2023-04-30T09:14:00.226Z,44.16
2023-04-30T09:16:31.372Z,45.07
2023-04-30T09:19:00.947Z,44.08
2023-04-30T09:21:37.166Z,43.08
2023-04-30T09:24:06.979Z,43.57
2023-04-30T09:26:39.226Z,44.28
2023-04-30T09:29:08.786Z,43.55
2023-04-30T09:31:38.036Z,43.98
2023-04-30T09:34:07.432Z,42.59
2023-04-30T09:36:36.178Z,42.40
2023-04-30T09:39:14.267Z,40.50
2023-04-30T09:41:45.071Z,40.77
2023-04-30T09:44:28.774Z,40.62
2023-04-30T09:46:58.563Z,41.64
2023-04-30T09:49:27.222Z,41.22
2023-04-30T09:51:57.510Z,40.91
2023-04-30T09:54:28.769Z,41.82
2023-04-30T09:57:02.245Z,41.70
2023-04-30T09:59:33.973Z,42.54
2023-04-30T10:02:04.794Z,42.27
2023-04-30T10:04:37.229Z,40.27
2023-04-30T10:07:13.373Z,40.87
2023-04-30T10:09:51.122Z,41.42
2023-04-30T10:12:27.164Z,41.30
2023-04-30T10:15:05.992Z,39.29
2023-04-30T10:17:41.484Z,39.00
2023-04-30T10:20:13.604Z,38.10
2023-04-30T10:22:43.702Z,38.49
2023-04-30T10:25:13.403Z,39.38
2023-04-30T10:27:42.635Z,39.92
2023-04-30T10:30:12.758Z,40.10
2023-04-30T10:32:58.331Z,40.50
2023-04-30T10:35:31.635Z,39.17
2023-04-30T10:38:12.107Z,37.99
2023-04-30T10:40:40.207Z,37.99
2023-04-30T10:43:12.922Z,39.40
2023-04-30T10:45:45.473Z,38.83
2023-04-30T10:48:24.357Z,39.63
2023-04-30T10:50:54.498Z,39.94
2023-04-30T10:53:25.178Z,38.50
2023-04-30T10:55:55.745Z,37.98
2023-04-30T10:58:32.366Z,37.33
2023-04-30T11:01:08.409Z,37.92
2023-04-30T11:03:37.984Z,38.26
2023-04-30T11:06:14.600Z,38.39
2023-04-30T11:08:46.602Z,37.61
2023-04-30T11:11:21.994Z,38.24
2023-04-30T11:14:02.237Z,39.09
2023-04-30T11:16:31.892Z,37.77
2023-04-30T11:19:15.303Z,37.68
2023-04-30T11:21:43.920Z,37.77
2023-04-30T11:24:14.114Z,38.29
2023-04-30T11:27:06.896Z,38.95
2023-04-30T11:29:37.550Z,39.15
2023-04-30T11:32:06.693Z,39.00
2023-04-30T11:34:36.217Z,39.37
2023-04-30T11:37:04.873Z,38.62
2023-04-30T11:39:38.055Z,38.31
2023-04-30T11:42:07.260Z,37.27
2023-04-30T11:44:38.580Z,38.38
2023-04-30T11:47:06.889Z,38.46
2023-04-30T11:49:35.122Z,37.48
2023-04-30T11:52:03.158Z,38.42
2023-04-30T11:54:33.284Z,38.43
2023-04-30T11:57:04.115Z,38.73
2023-04-30T11:59:33.123Z,38.26
2023-04-30T12:02:02.526Z,37.70
2023-04-30T12:04:30.756Z,37.75
2023-04-30T12:06:58.852Z,38.37
2023-04-30T12:09:26.807Z,38.47
2023-04-30T12:11:54.704Z,37.81
2023-04-30T12:14:26.202Z,38.06
2023-04-30T12:16:54.527Z,37.63
2023-04-30T12:19:25.161Z,37.91
2023-04-30T12:21:55.249Z,37.96
2023-04-30T12:24:23.685Z,37.61
2023-04-30T12:26:55.059Z,37.86
2023-04-30T12:29:24.982Z,39.16
2023-04-30T12:31:53.103Z,38.71
2023-04-30T12:34:21.167Z,38.49
2023-04-30T12:36:51.408Z,37.29
2023-04-30T12:39:19.392Z,37.51
2023-04-30T12:41:49.947Z,37.10
2023-04-30T12:44:20.400Z,37.59
2023-04-30T12:46:49.140Z,37.18
2023-04-30T12:49:28.504Z,37.42
2023-04-30T12:52:07.514Z,38.00
2023-04-30T12:54:38.062Z,38.35
2023-04-30T12:57:08.553Z,38.60
2023-04-30T12:59:40.085Z,38.91
2023-04-30T13:02:11.152Z,39.06
2023-04-30T13:04:40.144Z,38.67
2023-04-30T13:07:09.671Z,38.91
2023-04-30T13:09:39.235Z,38.89
2023-04-30T13:12:07.609Z,37.96
2023-04-30T13:14:36.267Z,39.04
2023-04-30T13:17:05.835Z,38.63
2023-04-30T13:19:34.585Z,37.73
2023-04-30T13:22:02.975Z,38.18
2023-04-30T13:24:32.334Z,38.36
2023-04-30T13:27:00.317Z,38.83
2023-04-30T13:29:28.254Z,38.74
2023-04-30T13:31:56.422Z,38.13
2023-04-30T13:34:24.466Z,37.85
2023-04-30T13:36:53.465Z,37.82
2023-04-30T13:39:21.833Z,37.62
2023-04-30T13:41:51.193Z,38.13
2023-04-30T13:44:19.151Z,37.41
2023-04-30T13:46:47.163Z,37.88
2023-04-30T13:49:15.106Z,37.75
2023-04-30T13:51:43.191Z,38.38
2023-04-30T13:54:11.340Z,37.01
2023-04-30T13:56:39.345Z,37.08
2023-04-30T13:59:08.701Z,37.29
2023-04-30T14:01:36.601Z,38.16
2023-04-30T14:04:04.779Z,37.97
2023-04-30T14:06:32.962Z,36.93
2023-04-30T14:09:00.986Z,36.88
2023-04-30T14:11:29.036Z,37.67
2023-04-30T14:13:57.188Z,38.01
2023-04-30T14:16:27.436Z,37.71
2023-04-30T14:18:55.463Z,37.73
2023-04-30T14:21:23.323Z,37.86
2023-04-30T14:23:52.250Z,38.09
2023-04-30T14:26:21.521Z,38.14
2023-04-30T14:28:49.570Z,38.01
2023-04-30T14:31:17.498Z,38.48
2023-04-30T14:33:46.856Z,38.29
2023-04-30T14:36:14.799Z,36.69
2023-04-30T14:38:42.764Z,36.54
2023-04-30T14:41:10.746Z,37.15
2023-04-30T14:43:38.820Z,37.18
2023-04-30T14:46:06.997Z,36.47
2023-04-30T14:48:35.066Z,37.33
2023-04-30T14:51:04.969Z,36.10
2023-04-30T14:53:33.646Z,34.65
2023-04-30T14:56:01.798Z,33.79
2023-04-30T14:58:29.953Z,33.63
2023-04-30T15:00:58.129Z,32.17
2023-04-30T15:03:26.247Z,30.44
2023-04-30T15:05:54.491Z,29.57
2023-04-30T15:08:23.861Z,30.48
2023-04-30T15:10:52.036Z,30.44
2023-04-30T15:13:20.060Z,29.17
2023-04-30T15:15:49.707Z,29.12
2023-04-30T15:18:17.592Z,30.03
2023-04-30T15:20:45.677Z,28.96
2023-04-30T15:23:13.851Z,29.70
2023-04-30T15:25:44.137Z,29.74
2023-04-30T15:28:12.437Z,29.35
2023-04-30T15:30:42.579Z,29.63
2023-04-30T15:33:12.338Z,30.41
2023-04-30T15:35:41.065Z,31.38
2023-04-30T15:38:09.076Z,31.16
2023-04-30T15:40:37.919Z,29.02
2023-04-30T15:43:07.743Z,30.91
2023-04-30T15:45:35.832Z,27.91
2023-04-30T15:48:03.827Z,28.82
2023-04-30T15:50:32.012Z,30.61
2023-04-30T15:53:00.061Z,29.88
2023-04-30T15:55:28.113Z,29.16
2023-04-30T15:57:56.068Z,28.70
2023-04-30T16:00:27.147Z,29.30
2023-04-30T16:02:55.335Z,30.55
2023-04-30T16:05:23.474Z,31.14
2023-04-30T16:07:53.293Z,31.86
2023-04-30T16:10:21.533Z,32.65
2023-04-30T16:12:49.418Z,32.00
2023-04-30T16:15:17.580Z,31.18
2023-04-30T16:17:47.138Z,31.71
2023-04-30T16:20:15.139Z,30.87
2023-04-30T16:22:43.306Z,31.35
2023-04-30T16:25:11.707Z,31.88
2023-04-30T16:27:39.602Z,32.11
2023-04-30T16:30:09.537Z,30.18
2023-04-30T16:32:37.722Z,30.92
2023-04-30T16:35:09.483Z,30.50
2023-04-30T16:37:37.375Z,30.00
2023-04-30T16:40:07.634Z,30.32
2023-04-30T16:42:36.236Z,29.40
2023-04-30T16:45:04.704Z,29.95
2023-04-30T16:47:32.702Z,32.28
2023-04-30T16:50:00.763Z,30.05
2023-04-30T16:52:31.021Z,29.25
2023-04-30T16:54:58.909Z,28.64
2023-04-30T16:57:26.909Z,29.48
2023-04-30T16:59:55.147Z,30.52
2023-04-30T17:02:24.275Z,31.28
2023-04-30T17:04:52.454Z,31.60
2023-04-30T17:07:20.445Z,31.86
2023-04-30T17:09:50.521Z,31.00
2023-04-30T17:12:18.576Z,31.23
2023-04-30T17:14:46.533Z,30.22
2023-04-30T17:17:14.450Z,30.72
2023-04-30T17:19:42.463Z,30.64
2023-04-30T17:22:10.388Z,29.70
2023-04-30T17:24:38.286Z,28.48
2023-04-30T17:27:07.965Z,30.11
2023-04-30T17:29:35.982Z,28.37
2023-04-30T17:32:04.395Z,29.09
2023-04-30T17:34:32.566Z,29.85
2023-04-30T17:37:00.669Z,30.86
2023-04-30T17:39:28.854Z,31.96
2023-04-30T17:41:56.862Z,32.36
2023-04-30T17:44:26.197Z,33.39
2023-04-30T17:46:55.163Z,33.05
2023-04-30T17:49:23.322Z,33.52
2023-04-30T17:51:51.324Z,34.22
2023-04-30T17:54:19.309Z,34.00
2023-04-30T17:56:47.298Z,33.93
2023-04-30T17:59:15.603Z,34.26
2023-04-30T18:01:45.023Z,35.08
2023-04-30T18:04:17.617Z,34.99
2023-04-30T18:06:46.172Z,34.89
2023-04-30T18:09:14.540Z,36.01
2023-04-30T18:11:42.545Z,36.21
2023-04-30T18:14:10.752Z,36.25
2023-04-30T18:16:38.892Z,36.81
2023-04-30T18:19:08.346Z,37.64
2023-04-30T18:21:36.372Z,37.52
2023-04-30T18:24:04.763Z,38.12
2023-04-30T18:26:32.796Z,37.30
2023-04-30T18:29:00.834Z,37.36
2023-04-30T18:31:29.527Z,37.68
2023-04-30T18:33:57.615Z,38.87
2023-04-30T18:36:28.165Z,39.69
2023-04-30T18:38:56.120Z,39.08
2023-04-30T18:41:24.476Z,39.81
2023-04-30T18:43:52.340Z,40.17
2023-04-30T18:46:20.744Z,40.79
2023-04-30T18:48:48.710Z,40.72
2023-04-30T18:51:16.874Z,41.50
2023-04-30T18:53:47.556Z,41.47
2023-04-30T18:56:15.803Z,41.87
2023-04-30T18:58:46.722Z,42.17
2023-04-30T19:01:14.665Z,42.87
2023-04-30T19:03:43.219Z,42.52
2023-04-30T19:06:11.488Z,44.47
2023-04-30T19:08:39.495Z,43.02
2023-04-30T19:11:09.604Z,43.66
2023-04-30T19:13:37.637Z,44.64
2023-04-30T19:16:05.932Z,43.93
2023-04-30T19:18:34.993Z,44.17
2023-04-30T19:21:05.288Z,44.42
2023-04-30T19:23:33.295Z,44.13
2023-04-30T19:26:01.464Z,45.09
2023-04-30T19:28:30.788Z,45.08
2023-04-30T19:30:58.839Z,46.29
2023-04-30T19:33:27.620Z,46.07
2023-04-30T19:35:58.668Z,46.08
2023-04-30T19:38:27.033Z,46.24
2023-04-30T19:40:55.818Z,46.53
2023-04-30T19:43:26.219Z,46.32
2023-04-30T19:46:00.471Z,46.71
2023-04-30T19:48:28.442Z,46.71
2023-04-30T19:50:58.095Z,46.57
2023-04-30T19:53:26.105Z,47.80
2023-04-30T19:55:54.365Z,48.18
2023-04-30T19:58:22.470Z,48.50
2023-04-30T20:00:50.421Z,48.48
2023-04-30T20:03:20.498Z,48.61
2023-04-30T20:05:48.614Z,48.65
2023-04-30T20:08:17.436Z,47.54
2023-04-30T20:10:46.937Z,46.78
2023-04-30T20:13:15.775Z,47.03
2023-04-30T20:15:43.931Z,47.44
2023-04-30T20:18:12.809Z,47.72
2023-04-30T20:20:42.111Z,47.98
2023-04-30T20:23:15.004Z,48.58
2023-04-30T20:25:45.308Z,48.64
2023-04-30T20:28:14.364Z,48.94
2023-04-30T20:30:43.863Z,48.95
2023-04-30T20:33:11.929Z,48.94
2023-04-30T20:35:41.574Z,49.81
2023-04-30T20:38:11.968Z,49.91
2023-04-30T20:40:41.093Z,50.61
2023-04-30T20:43:11.697Z,50.42
2023-04-30T20:45:40.716Z,50.86
2023-04-30T20:48:09.134Z,51.15
2023-04-30T20:50:37.671Z,51.71
2023-04-30T20:53:09.663Z,52.16
2023-04-30T20:55:40.410Z,52.53
2023-04-30T20:58:08.921Z,52.31
2023-04-30T21:00:36.988Z,52.57
2023-04-30T21:03:05.948Z,52.79
2023-04-30T21:05:34.254Z,53.22
2023-04-30T21:08:03.068Z,53.88
2023-04-30T21:10:36.218Z,53.80
2023-04-30T21:13:08.809Z,54.34
2023-04-30T21:15:39.169Z,54.19
2023-04-30T21:18:07.249Z,55.40
2023-04-30T21:20:35.388Z,55.47
2023-04-30T21:23:03.855Z,54.93
2023-04-30T21:25:31.830Z,55.10
2023-04-30T21:27:59.851Z,55.89
2023-04-30T21:30:29.226Z,56.65
2023-04-30T21:32:58.871Z,55.53
2023-04-30T21:35:27.700Z,56.20
2023-04-30T21:37:55.826Z,56.42
2023-04-30T21:40:23.777Z,56.58
2023-04-30T21:42:52.559Z,56.28
2023-04-30T21:45:20.781Z,57.44
2023-04-30T21:47:50.282Z,56.58
2023-04-30T21:50:18.401Z,57.61
2023-04-30T21:52:46.368Z,58.42
2023-04-30T21:55:14.353Z,59.27
2023-04-30T21:57:42.335Z,58.34
2023-04-30T22:00:14.264Z,58.77
2023-04-30T22:02:42.473Z,58.63
2023-04-30T22:05:12.455Z,58.75
2023-04-30T22:07:40.643Z,58.99
2023-04-30T22:10:10.330Z,59.50
2023-04-30T22:12:38.559Z,59.78
2023-04-30T22:15:09.082Z,59.65
2023-04-30T22:17:37.032Z,59.69
2023-04-30T22:20:06.995Z,59.98
2023-04-30T22:22:36.334Z,60.72
2023-04-30T22:25:04.552Z,59.99
2023-04-30T22:27:32.884Z,60.68
2023-04-30T22:30:00.893Z,60.97
2023-04-30T22:32:28.904Z,60.78
2023-04-30T22:34:57.471Z,61.28
2023-04-30T22:37:26.251Z,61.08
2023-04-30T22:39:55.730Z,60.74
2023-04-30T22:42:24.330Z,61.20
2023-04-30T22:44:53.074Z,61.85
2023-04-30T22:47:21.162Z,61.56
2023-04-30T22:49:49.713Z,62.32
2023-04-30T22:52:18.152Z,62.82
2023-04-30T22:54:47.185Z,62.80
2023-04-30T22:57:16.589Z,62.43
2023-04-30T22:59:44.526Z,62.27
2023-04-30T23:02:12.542Z,62.63
2023-04-30T23:04:40.544Z,62.63
2023-04-30T23:07:08.935Z,62.80
2023-04-30T23:09:36.966Z,62.88
2023-04-30T23:12:05.550Z,62.91
2023-04-30T23:14:35.103Z,63.27
2023-04-30T23:17:03.268Z,63.94
2023-04-30T23:19:31.186Z,63.79
2023-04-30T23:21:59.141Z,63.91
2023-04-30T23:24:27.130Z,64.10
2023-04-30T23:26:55.269Z,64.54
2023-04-30T23:29:23.328Z,64.21
2023-04-30T23:31:53.842Z,64.37
2023-04-30T23:34:22.081Z,64.58
2023-04-30T23:36:50.006Z,64.85
2023-04-30T23:39:18.156Z,65.12
2023-04-30T23:41:46.073Z,65.89
2023-04-30T23:44:14.273Z,65.54
2023-04-30T23:46:42.461Z,66.01
2023-04-30T23:49:11.948Z,66.53
2023-04-30T23:51:40.042Z,66.37
2023-04-30T23:54:08.016Z,66.40
2023-04-30T23:56:36.510Z,66.35
2023-04-30T23:59:04.514Z,66.30
